Time;durP1;ratioP1;P1;durP2;ratioP2;P2;SDS_P1;SDS_P2;PMS_P1;PMS_P2;Temp;Humidity;BMP_temperature;BMP_pressure;BME280_temperature;BME280_humidity;BME280_pressure;Samples;Min_cycle;Max_cycle;Signal;HPM_P1;HPM_P2
2022/04/15 00:01:49;;;;;;;30.15;18.92;;;12.00;60.50;;;;;;5034880;28;20079;-59
2022/04/15 00:04:15;;;;;;;35.05;19.40;;;12.00;61.00;;;;;;5034392;28;20491;-58
2022/04/15 00:06:41;;;;;;;37.70;21.58;;;12.10;59.70;;;;;;5034813;28;20026;-59
2022/04/15 00:09:07;;;;;;;27.58;16.75;;;12.00;59.30;;;;;;5033306;28;20029;-58
2022/04/15 00:11:32;;;;;;;29.50;16.23;;;12.00;57.40;;;;;;5034527;28;20032;-58
2022/04/15 00:14:00;;;;;;;23.02;14.60;;;12.00;56.80;;;;;;5033251;28;20476;-58
2022/04/15 00:16:25;;;;;;;21.80;14.52;;;12.10;57.00;;;;;;5034386;28;20033;-59
2022/04/15 00:18:51;;;;;;;23.80;14.25;;;12.00;56.90;;;;;;5034184;28;20032;-59
2022/04/15 00:21:17;;;;;;;23.20;13.77;;;12.00;56.40;;;;;;5034215;28;20029;-60
2022/04/15 00:23:43;;;;;;;21.45;13.43;;;12.00;56.60;;;;;;5034428;28;20032;-60
2022/04/15 00:26:08;;;;;;;18.63;12.73;;;12.10;56.80;;;;;;5034221;28;20213;-60
2022/04/15 00:28:34;;;;;;;22.13;14.15;;;12.00;56.70;;;;;;5034437;28;20045;-58
2022/04/15 00:31:00;;;;;;;21.63;12.75;;;12.00;57.30;;;;;;5034447;28;20479;-59
2022/04/15 00:33:26;;;;;;;24.33;13.57;;;11.90;57.90;;;;;;5034234;28;20025;-58
2022/04/15 00:35:52;;;;;;;25.52;14.93;;;11.90;57.70;;;;;;5034344;28;20209;-59
2022/04/15 00:38:18;;;;;;;22.83;13.93;;;11.90;58.70;;;;;;5034032;28;20554;-59
2022/04/15 00:40:43;;;;;;;17.52;12.52;;;11.80;58.00;;;;;;5034303;28;20427;-59
2022/04/15 00:43:09;;;;;;;25.30;16.10;;;11.70;58.30;;;;;;5033851;28;20033;-59
2022/04/15 00:45:35;;;;;;;22.23;13.52;;;11.60;58.00;;;;;;5034081;28;20426;-57
2022/04/15 00:48:01;;;;;;;19.75;12.05;;;11.50;58.20;;;;;;5033741;28;20575;-59
2022/04/15 00:50:32;;;;;;;23.55;14.55;;;11.40;58.50;;;;;;5034179;28;20029;-59
2022/04/15 00:53:01;;;;;;;20.95;12.75;;;11.40;58.80;;;;;;5034062;28;20057;-59
2022/04/15 00:55:27;;;;;;;18.63;11.10;;;11.30;59.90;;;;;;5033777;28;20025;-59
2022/04/15 00:58:04;;;;;;;20.85;12.18;;;11.40;60.00;;;;;;5033635;28;20436;-59
2022/04/15 01:00:32;;;;;;;18.63;11.50;;;11.40;59.50;;;;;;5033661;28;20463;-58
2022/04/15 01:02:59;;;;;;;24.15;14.68;;;11.40;58.80;;;;;;5033613;28;20419;-58
2022/04/15 01:05:26;;;;;;;23.42;13.65;;;11.30;59.30;;;;;;5033501;28;20072;-58
2022/04/15 01:07:55;;;;;;;22.33;12.82;;;11.10;59.90;;;;;;5033605;28;20496;-59
2022/04/15 01:10:22;;;;;;;25.08;14.63;;;11.00;61.10;;;;;;5032877;28;20033;-59
2022/04/15 01:12:53;;;;;;;21.42;13.80;;;10.80;62.20;;;;;;5033440;28;20033;-59
2022/04/15 01:15:20;;;;;;;19.80;12.65;;;10.70;63.30;;;;;;5033375;28;20496;-59
2022/04/15 01:17:45;;;;;;;19.63;12.75;;;10.70;64.20;;;;;;5033325;28;20029;-60
2022/04/15 01:20:12;;;;;;;20.95;12.35;;;10.80;63.90;;;;;;5033335;28;20151;-59
2022/04/15 01:22:41;;;;;;;20.80;11.23;;;10.90;63.60;;;;;;5033231;28;20025;-58
2022/04/15 01:25:08;;;;;;;18.67;11.52;;;10.90;62.60;;;;;;5033590;28;20104;-60
2022/04/15 01:27:41;;;;;;;20.40;10.60;;;11.00;62.70;;;;;;5033202;28;20024;-59
2022/04/15 01:30:15;;;;;;;17.02;10.85;;;11.00;63.70;;;;;;5033390;28;20026;-58
2022/04/15 01:32:42;;;;;;;17.33;11.15;;;11.00;62.30;;;;;;5032944;28;20065;-56
2022/04/15 01:35:10;;;;;;;23.33;14.77;;;11.00;63.30;;;;;;5032279;28;20380;-59
2022/04/15 01:37:36;;;;;;;21.08;13.23;;;10.80;65.10;;;;;;5033199;28;20029;-59
2022/04/15 01:40:04;;;;;;;23.60;13.70;;;10.70;67.30;;;;;;5033074;28;20133;-55
2022/04/15 01:42:30;;;;;;;29.00;17.52;;;10.70;67.00;;;;;;5033086;28;20056;-56
2022/04/15 01:44:56;;;;;;;32.38;20.05;;;10.70;68.70;;;;;;5033145;28;20029;-59
2022/04/15 01:47:22;;;;;;;26.67;17.95;;;10.40;72.60;;;;;;5032876;28;20551;-58
2022/04/15 01:49:47;;;;;;;24.45;15.32;;;10.20;75.20;;;;;;5033100;28;20053;-59
2022/04/15 01:52:13;;;;;;;25.30;14.98;;;10.20;74.80;;;;;;5033059;28;20472;-54
2022/04/15 01:54:39;;;;;;;22.45;13.93;;;10.30;73.50;;;;;;5033041;28;20017;-57
2022/04/15 01:57:05;;;;;;;20.90;13.13;;;10.40;72.80;;;;;;5032938;28;20128;-59
2022/04/15 01:59:30;;;;;;;21.70;13.05;;;10.40;70.70;;;;;;5033044;28;20021;-59
2022/04/15 02:01:56;;;;;;;20.13;11.85;;;10.40;70.60;;;;;;5033147;28;20029;-59
2022/04/15 02:04:26;;;;;;;21.67;12.73;;;10.50;70.80;;;;;;5032905;28;20025;-59
2022/04/15 02:06:52;;;;;;;21.75;12.45;;;10.50;70.70;;;;;;5032953;28;20026;-57
2022/04/15 02:09:18;;;;;;;16.50;10.75;;;10.50;69.30;;;;;;5033025;28;20491;-58
2022/04/15 02:11:45;;;;;;;16.80;9.85;;;10.40;69.60;;;;;;5033102;28;20025;-59
2022/04/15 02:14:12;;;;;;;18.27;11.25;;;10.40;69.40;;;;;;5032789;28;20026;-57
2022/04/15 02:16:39;;;;;;;16.00;10.50;;;10.40;68.30;;;;;;5032695;28;20076;-57
2022/04/15 02:19:05;;;;;;;20.20;11.63;;;10.50;67.90;;;;;;5032771;28;20022;-59
2022/04/15 02:21:30;;;;;;;15.02;9.85;;;10.50;67.90;;;;;;5033699;28;20022;-59
2022/04/15 02:23:56;;;;;;;14.43;8.75;;;10.40;69.70;;;;;;5036555;28;20032;-59
2022/04/15 02:26:22;;;;;;;17.65;9.45;;;10.40;69.70;;;;;;5036501;28;20021;-57
2022/04/15 02:28:48;;;;;;;17.20;10.35;;;10.40;68.90;;;;;;5036649;28;20018;-60
2022/04/15 02:31:13;;;;;;;14.73;9.18;;;10.30;69.10;;;;;;5036317;28;20384;-60
2022/04/15 02:33:39;;;;;;;14.35;8.80;;;10.20;69.70;;;;;;5036650;28;20072;-58
2022/04/15 02:36:05;;;;;;;13.45;8.55;;;10.30;71.00;;;;;;5036343;28;20386;-59
2022/04/15 02:38:31;;;;;;;14.82;8.98;;;10.20;72.90;;;;;;5036353;28;20024;-57
2022/04/15 02:40:57;;;;;;;12.65;8.73;;;10.30;73.10;;;;;;5036617;28;20130;-59
2022/04/15 02:43:25;;;;;;;13.93;8.30;;;10.20;73.90;;;;;;5035916;28;20029;-59
2022/04/15 02:45:51;;;;;;;13.35;8.18;;;10.20;71.30;;;;;;5036473;28;20087;-59
2022/04/15 02:48:17;;;;;;;12.57;7.93;;;10.20;71.20;;;;;;5036187;28;20018;-58
2022/04/15 02:50:45;;;;;;;16.80;9.48;;;10.10;70.60;;;;;;5036262;28;20104;-58
2022/04/15 02:53:11;;;;;;;10.93;7.60;;;10.10;70.20;;;;;;5036090;28;20028;-58
2022/04/15 02:55:37;;;;;;;12.27;7.57;;;10.00;70.10;;;;;;5036005;28;20124;-58
2022/04/15 02:58:03;;;;;;;12.75;8.63;;;10.10;70.80;;;;;;5036229;28;20507;-59
2022/04/15 03:00:28;;;;;;;12.10;7.80;;;10.10;70.40;;;;;;5036231;28;20496;-59
2022/04/15 03:02:54;;;;;;;14.00;8.05;;;9.90;70.90;;;;;;5035828;28;20036;-59
2022/04/15 03:05:20;;;;;;;12.15;8.23;;;9.90;70.10;;;;;;5035797;28;20030;-60
2022/04/15 03:07:46;;;;;;;15.13;8.20;;;9.90;70.40;;;;;;5035917;28;20021;-58
2022/04/15 03:10:11;;;;;;;16.02;9.95;;;9.90;70.70;;;;;;5036006;28;20044;-59
2022/04/15 03:12:39;;;;;;;15.73;9.82;;;9.80;71.70;;;;;;5035449;28;20033;-58
2022/04/15 03:15:06;;;;;;;15.82;9.80;;;9.70;72.80;;;;;;5035478;28;20071;-56
2022/04/15 03:17:33;;;;;;;19.02;9.68;;;9.60;72.30;;;;;;5035537;28;20026;-58
2022/04/15 03:20:02;;;;;;;14.88;9.55;;;9.60;73.20;;;;;;5035564;28;20026;-55
2022/04/15 03:22:29;;;;;;;17.55;11.25;;;9.50;72.70;;;;;;5035373;28;20108;-57
2022/04/15 03:24:54;;;;;;;13.48;8.60;;;9.50;73.60;;;;;;5035426;28;20025;-59
2022/04/15 03:27:20;;;;;;;13.27;8.63;;;9.40;75.90;;;;;;5035456;28;20032;-60
2022/04/15 03:29:46;;;;;;;17.35;10.25;;;9.40;74.50;;;;;;5035652;28;20431;-59
2022/04/15 03:32:12;;;;;;;16.17;9.48;;;9.50;75.20;;;;;;5035473;28;20026;-57
2022/04/15 03:34:38;;;;;;;12.43;7.50;;;9.40;75.30;;;;;;5034569;28;20032;-59
2022/04/15 03:37:04;;;;;;;13.00;8.23;;;9.40;75.80;;;;;;5035164;28;20021;-55
2022/04/15 03:39:31;;;;;;;15.15;10.13;;;9.40;75.50;;;;;;5035240;28;20092;-60
2022/04/15 03:41:56;;;;;;;16.92;10.60;;;9.40;76.10;;;;;;5035160;28;20068;-59
2022/04/15 03:44:22;;;;;;;20.83;13.88;;;9.30;78.80;;;;;;5035280;28;20033;-59
2022/04/15 03:46:48;;;;;;;23.35;13.60;;;9.20;85.80;;;;;;5035607;28;20071;-59
2022/04/15 03:49:13;;;;;;;20.92;13.57;;;9.00;90.10;;;;;;5035081;28;20030;-57
2022/04/15 03:51:39;;;;;;;19.60;12.02;;;8.90;91.30;;;;;;5034897;28;20018;-59
2022/04/15 03:54:05;;;;;;;18.55;11.55;;;8.90;92.00;;;;;;5034958;28;20455;-59
2022/04/15 03:56:32;;;;;;;15.60;9.60;;;9.00;92.00;;;;;;5034782;28;20056;-59
2022/04/15 03:58:57;;;;;;;19.10;11.32;;;9.00;92.20;;;;;;5034712;28;20025;-59
2022/04/15 04:01:24;;;;;;;15.63;10.75;;;9.10;90.90;;;;;;5034985;28;20024;-59
2022/04/15 04:03:51;;;;;;;18.45;12.20;;;9.10;91.00;;;;;;5034758;28;20033;-56
2022/04/15 04:06:16;;;;;;;19.92;12.00;;;9.00;92.40;;;;;;5034634;28;20468;-60
2022/04/15 04:08:49;;;;;;;19.95;11.75;;;9.00;93.10;;;;;;5034606;28;20104;-57
2022/04/15 04:11:16;;;;;;;24.95;13.80;;;8.90;93.90;;;;;;5034511;28;20095;-60
2022/04/15 04:13:41;;;;;;;17.92;11.40;;;8.90;94.20;;;;;;5034493;28;20037;-59
2022/04/15 04:16:07;;;;;;;15.77;11.50;;;8.90;94.30;;;;;;5034395;28;20092;-56
2022/04/15 04:18:33;;;;;;;19.38;12.43;;;8.90;94.60;;;;;;5034581;28;20441;-57
2022/04/15 04:20:59;;;;;;;18.10;11.70;;;9.00;94.60;;;;;;5034438;28;20476;-56
2022/04/15 04:23:24;;;;;;;21.35;13.15;;;9.00;95.20;;;;;;5034406;28;20083;-58
2022/04/15 04:25:50;;;;;;;32.00;18.23;;;9.10;91.50;;;;;;5034340;28;20431;-58
2022/04/15 04:28:16;;;;;;;35.20;19.42;;;9.20;90.60;;;;;;5034278;28;20026;-57
2022/04/15 04:30:41;;;;;;;43.58;22.92;;;9.20;90.40;;;;;;5034139;28;20490;-57
2022/04/15 04:33:07;;;;;;;39.45;21.38;;;9.30;90.00;;;;;;5034406;28;20052;-59
2022/04/15 04:35:33;;;;;;;33.42;19.75;;;9.30;88.60;;;;;;5034213;28;20029;-58
2022/04/15 04:37:58;;;;;;;32.10;19.10;;;9.30;87.30;;;;;;5034021;28;20026;-55
2022/04/15 04:40:24;;;;;;;33.25;20.27;;;9.30;86.50;;;;;;5033842;28;20025;-59
2022/04/15 04:42:51;;;;;;;34.13;20.13;;;9.40;85.30;;;;;;5033937;28;20022;-59
2022/04/15 04:45:19;;;;;;;36.38;19.75;;;9.50;83.90;;;;;;5033206;28;20033;-57
2022/04/15 04:47:46;;;;;;;29.02;16.95;;;9.50;83.50;;;;;;5033935;28;20387;-58
2022/04/15 04:50:12;;;;;;;32.92;19.63;;;9.50;83.40;;;;;;5033706;28;20018;-58
2022/04/15 04:52:39;;;;;;;37.60;23.35;;;9.50;88.50;;;;;;5033568;28;20036;-57
2022/04/15 04:55:06;;;;;;;37.92;24.85;;;9.30;91.30;;;;;;5033708;28;20111;-58
2022/04/15 04:57:32;;;;;;;41.05;25.55;;;9.10;95.00;;;;;;5033855;28;20029;-56
2022/04/15 04:59:58;;;;;;;38.33;24.40;;;8.90;96.70;;;;;;5033365;28;20075;-58
2022/04/15 05:02:23;;;;;;;36.30;23.90;;;8.90;97.00;;;;;;5033150;28;20029;-58
2022/04/15 05:04:49;;;;;;;46.85;29.42;;;9.10;95.30;;;;;;5033014;28;20037;-60
2022/04/15 05:07:15;;;;;;;54.45;33.75;;;9.10;95.60;;;;;;5033128;28;20104;-60
2022/04/15 05:09:43;;;;;;;56.75;35.08;;;9.00;96.40;;;;;;5038898;28;20044;-55
2022/04/15 05:12:11;;;;;;;63.38;38.45;;;8.80;98.20;;;;;;5045743;28;20447;-55
2022/04/15 05:14:37;;;;;;;59.03;37.47;;;8.80;98.00;;;;;;5050266;28;20029;-55
2022/04/15 05:17:04;;;;;;;61.97;37.88;;;8.80;98.00;;;;;;5051273;28;20503;-55
2022/04/15 05:19:30;;;;;;;48.95;32.83;;;8.80;99.30;;;;;;5051409;28;20101;-57
2022/04/15 05:21:55;;;;;;;46.90;31.35;;;8.90;99.20;;;;;;5051291;28;20116;-54
2022/04/15 05:24:21;;;;;;;53.30;35.78;;;8.90;99.20;;;;;;5051107;28;20025;-56
2022/04/15 05:26:47;;;;;;;54.78;37.78;;;8.90;99.90;;;;;;5051740;28;20021;-57
2022/04/15 05:29:12;;;;;;;53.97;37.38;;;8.90;99.80;;;;;;5036192;28;20399;-54
2022/04/15 05:31:38;;;;;;;47.55;32.45;;;8.90;99.90;;;;;;5042794;28;20573;-57
2022/04/15 05:34:04;;;;;;;48.65;31.25;;;8.80;99.90;;;;;;5044222;28;20036;-56
2022/04/15 05:36:30;;;;;;;48.58;30.98;;;8.80;99.90;;;;;;5031496;28;20065;-57
2022/04/15 05:38:56;;;;;;;41.88;27.45;;;8.80;99.90;;;;;;5030261;28;20045;-56
2022/04/15 05:41:22;;;;;;;46.22;29.35;;;8.80;99.90;;;;;;5035579;28;20439;-54
2022/04/15 05:43:48;;;;;;;44.97;30.23;;;8.90;99.90;;;;;;5035457;28;20029;-57
2022/04/15 05:46:15;;;;;;;42.22;26.90;;;9.00;99.30;;;;;;5045279;28;20043;-55
2022/04/15 05:48:40;;;;;;;42.83;28.05;;;9.20;98.10;;;;;;5035320;28;20040;-59
2022/04/15 05:51:06;;;;;;;41.17;25.27;;;9.40;99.90;;;;;;5037184;28;20030;-57
2022/04/15 05:53:32;;;;;;;38.30;25.13;;;9.40;97.70;;;;;;5043477;28;20499;-57
2022/04/15 05:55:58;;;;;;;37.08;24.13;;;9.70;98.10;;;;;;5043024;28;20384;-58
2022/04/15 05:58:27;;;;;;;44.58;25.67;;;9.90;98.60;;;;;;5053730;28;20017;-60
2022/04/15 06:00:54;;;;;;;37.22;22.95;;;10.10;96.60;;;;;;5042325;28;20372;-56
2022/04/15 06:03:20;;;;;;;37.67;22.77;;;10.40;97.80;;;;;;5034134;28;20033;-57
2022/04/15 06:05:47;;;;;;;42.88;24.20;;;10.80;92.20;;;;;;5032687;28;20037;-58
2022/04/15 06:08:13;;;;;;;32.88;21.20;;;11.10;93.20;;;;;;5034512;28;20124;-58
2022/04/15 06:10:39;;;;;;;31.00;19.55;;;11.30;87.60;;;;;;5035321;28;20442;-60
2022/04/15 06:13:19;;;;;;;31.27;18.88;;;11.70;88.80;;;;;;5034597;28;20074;-58
2022/04/15 06:15:52;;;;;;;29.40;18.33;;;12.20;85.40;;;;;;5049716;28;20398;-59
2022/04/15 06:18:19;;;;;;;23.85;15.70;;;14.00;76.90;;;;;;5050066;28;20497;-57
2022/04/15 06:20:46;;;;;;;21.85;11.35;;;17.10;63.50;;;;;;5053294;28;20491;-53
2022/04/15 06:23:13;;;;;;;17.55;11.93;;;19.40;52.10;;;;;;5044916;28;20566;-58
2022/04/15 06:25:40;;;;;;;18.73;12.45;;;20.40;49.60;;;;;;5043372;28;20037;-60
2022/04/15 06:28:05;;;;;;;19.60;10.50;;;20.70;46.70;;;;;;5043981;28;20057;-57
2022/04/15 06:30:31;;;;;;;15.63;10.15;;;20.30;45.20;;;;;;5046296;28;20489;-59
2022/04/15 06:32:57;;;;;;;16.58;10.73;;;19.90;45.50;;;;;;5036629;28;20060;-56
2022/04/15 06:35:23;;;;;;;17.63;10.90;;;19.10;45.00;;;;;;5042030;28;20030;-56
2022/04/15 06:37:48;;;;;;;16.05;10.82;;;18.10;47.20;;;;;;5044431;28;20032;-53
2022/04/15 06:40:14;;;;;;;12.10;10.45;;;18.10;48.60;;;;;;5038423;28;20494;-53
2022/04/15 06:42:40;;;;;;;22.30;15.35;;;20.10;47.10;;;;;;5039452;28;20102;-56
2022/04/15 06:45:06;;;;;;;18.83;13.40;;;21.00;45.10;;;;;;5042665;28;20032;-59
2022/04/15 06:47:32;;;;;;;19.83;14.52;;;22.00;43.90;;;;;;5039183;28;20029;-54
2022/04/15 06:49:58;;;;;;;22.10;14.63;;;24.60;41.60;;;;;;5039226;28;20618;-56
2022/04/15 06:52:24;;;;;;;19.00;13.38;;;26.70;38.30;;;;;;5037046;28;20029;-60
2022/04/15 06:54:50;;;;;;;15.57;11.88;;;27.30;36.10;;;;;;5041322;28;20025;-54
2022/04/15 06:57:16;;;;;;;12.40;10.65;;;28.10;35.80;;;;;;5038983;28;20099;-57
2022/04/15 06:59:42;;;;;;;17.38;12.88;;;29.10;34.50;;;;;;5040776;28;20041;-59
2022/04/15 07:02:07;;;;;;;17.25;13.57;;;30.10;33.80;;;;;;5040638;28;20081;-59
2022/04/15 07:04:34;;;;;;;18.33;14.48;;;31.00;32.70;;;;;;5038549;28;20407;-54
2022/04/15 07:07:00;;;;;;;17.23;13.88;;;31.40;32.50;;;;;;5053047;28;20036;-59
2022/04/15 07:09:26;;;;;;;20.52;15.70;;;31.60;31.60;;;;;;5051952;28;20028;-55
2022/04/15 07:11:53;;;;;;;16.88;14.68;;;31.60;30.60;;;;;;5051967;28;20021;-59
2022/04/15 07:14:18;;;;;;;17.00;13.48;;;31.80;30.00;;;;;;5051153;28;20025;-59
2022/04/15 07:16:44;;;;;;;15.27;12.93;;;32.30;29.90;;;;;;5051351;28;20045;-59
2022/04/15 07:19:10;;;;;;;14.57;11.65;;;33.00;29.40;;;;;;5052000;28;20606;-56
2022/04/15 07:21:41;;;;;;;18.10;10.70;;;33.40;29.50;;;;;;5053665;28;20032;-53
2022/04/15 07:24:07;;;;;;;12.15;9.15;;;33.50;29.20;;;;;;5054701;28;20032;-57
2022/04/15 07:26:33;;;;;;;9.02;7.95;;;33.60;28.30;;;;;;5054474;28;20024;-58
2022/04/15 07:28:58;;;;;;;9.00;7.30;;;34.30;27.80;;;;;;5052947;28;20033;-60
2022/04/15 07:31:25;;;;;;;7.78;6.88;;;34.60;27.60;;;;;;5052721;28;20111;-56
2022/04/15 07:33:51;;;;;;;10.85;8.10;;;34.80;27.60;;;;;;5052550;28;20025;-57
2022/04/15 07:39:06;;;;;;;7.35;6.53;;;34.80;28.10;;;;;;5031899;28;20028;-60
2022/04/15 07:41:33;;;;;;;9.15;5.60;;;34.80;27.40;;;;;;5031018;28;20080;-56
2022/04/15 07:43:59;;;;;;;8.15;7.03;;;35.50;27.50;;;;;;5030899;28;20025;-57
2022/04/15 07:46:24;;;;;;;10.55;7.55;;;35.40;28.00;;;;;;5030670;28;20031;-57
2022/04/15 07:48:50;;;;;;;9.40;7.65;;;35.60;27.50;;;;;;5032156;28;20026;-57
2022/04/15 07:51:16;;;;;;;8.55;7.40;;;35.80;27.70;;;;;;5032446;28;20024;-57
2022/04/15 07:53:42;;;;;;;6.93;6.10;;;35.80;27.20;;;;;;5034029;28;20033;-59
2022/04/15 07:56:08;;;;;;;8.15;6.50;;;35.80;26.90;;;;;;5033427;28;20025;-55
2022/04/15 07:58:34;;;;;;;7.47;6.60;;;36.10;26.50;;;;;;5036094;28;20387;-57
2022/04/15 08:01:00;;;;;;;7.85;6.20;;;36.30;27.20;;;;;;5039106;28;20499;-59
2022/04/15 08:03:29;;;;;;;8.88;6.78;;;36.90;26.90;;;;;;5049023;28;20456;-58
2022/04/15 08:05:54;;;;;;;6.80;6.10;;;37.10;27.40;;;;;;5039856;28;20025;-59
2022/04/15 08:08:20;;;;;;;6.30;5.18;;;37.30;26.80;;;;;;5041080;28;20039;-57
2022/04/15 08:10:48;;;;;;;5.88;5.28;;;37.20;27.00;;;;;;5044649;28;20057;-56
2022/04/15 08:13:14;;;;;;;8.52;5.78;;;37.30;26.70;;;;;;5031196;28;20691;-58
2022/04/15 08:15:40;;;;;;;8.27;5.65;;;37.30;27.10;;;;;;5038816;28;20056;-57
2022/04/15 08:18:06;;;;;;;8.68;6.30;;;37.10;27.40;;;;;;5036752;28;20112;-58
2022/04/15 08:20:32;;;;;;;10.10;6.65;;;36.90;26.80;;;;;;5033386;28;20449;-58
2022/04/15 08:22:57;;;;;;;7.72;6.55;;;37.00;26.60;;;;;;5033433;28;20025;-56
2022/04/15 08:25:24;;;;;;;10.35;6.85;;;37.00;27.30;;;;;;5033468;28;20302;-56
2022/04/15 08:27:50;;;;;;;9.13;6.88;;;37.00;26.80;;;;;;5051472;28;20104;-59
2022/04/15 08:30:19;;;;;;;8.00;6.03;;;37.20;26.30;;;;;;5050925;28;20635;-61
2022/04/15 08:32:53;;;;;;;8.15;6.13;;;37.20;25.90;;;;;;5049688;28;20035;-62
2022/04/15 08:35:20;;;;;;;9.02;6.35;;;37.30;25.90;;;;;;5049458;28;20021;-57
2022/04/15 08:37:45;;;;;;;9.68;6.60;;;37.20;26.20;;;;;;5048901;28;20326;-57
2022/04/15 08:40:12;;;;;;;9.77;6.38;;;37.00;25.90;;;;;;5048937;28;20029;-56
2022/04/15 08:42:40;;;;;;;7.65;6.10;;;36.50;25.40;;;;;;5048634;28;20040;-57
2022/04/15 08:45:08;;;;;;;10.77;6.30;;;36.30;26.00;;;;;;5049916;28;20025;-57
2022/04/15 08:47:35;;;;;;;8.50;6.88;;;35.70;25.20;;;;;;5032692;28;20479;-57
2022/04/15 08:50:03;;;;;;;9.02;6.45;;;34.80;26.40;;;;;;5034002;28;20068;-55
2022/04/15 08:52:29;;;;;;;8.10;6.47;;;34.40;26.00;;;;;;5046956;28;20056;-59
2022/04/15 08:54:55;;;;;;;8.50;7.18;;;34.50;26.60;;;;;;5046572;28;20032;-57
2022/04/15 08:57:22;;;;;;;7.07;6.40;;;34.60;26.30;;;;;;5032268;28;20018;-58
2022/04/15 08:59:47;;;;;;;9.20;6.28;;;34.60;26.80;;;;;;5032876;28;20024;-58
2022/04/15 09:02:28;;;;;;;8.15;5.95;;;34.30;26.90;;;;;;5038560;28;20029;-62
2022/04/15 09:04:59;;;;;;;7.40;5.60;;;33.40;27.70;;;;;;5036145;28;20048;-61
2022/04/15 09:07:29;;;;;;;7.75;5.80;;;33.30;26.70;;;;;;5044422;28;20099;-58
2022/04/15 09:09:59;;;;;;;6.72;5.72;;;33.60;26.60;;;;;;5050618;28;20025;-59
2022/04/15 09:12:27;;;;;;;7.18;5.50;;;32.90;27.00;;;;;;5050711;28;20036;-60
2022/04/15 09:15:13;;;;;;;7.28;5.97;;;32.90;27.70;;;;;;5052209;28;20047;-60
2022/04/15 09:17:41;;;;;;;8.40;6.32;;;32.80;28.30;;;;;;5047720;28;20025;-60
2022/04/15 09:20:12;;;;;;;6.18;5.43;;;32.90;27.50;;;;;;5035607;28;20614;-62
2022/04/15 09:22:38;;;;;;;6.63;5.43;;;33.30;27.70;;;;;;5046096;28;20392;-58
2022/04/15 09:25:07;;;;;;;5.88;5.25;;;33.50;27.20;;;;;;5029027;28;20032;-58
2022/04/15 09:27:35;;;;;;;6.38;4.72;;;33.40;27.40;;;;;;5033187;28;20085;-60
2022/04/15 09:30:02;;;;;;;5.45;4.63;;;33.30;27.20;;;;;;5039687;28;20033;-60
2022/04/15 09:32:29;;;;;;;5.07;4.57;;;33.50;27.50;;;;;;5031725;28;20029;-57
2022/04/15 09:34:59;;;;;;;4.72;4.13;;;33.70;27.80;;;;;;5040295;28;20040;-55
2022/04/15 09:37:29;;;;;;;5.43;4.38;;;33.90;27.80;;;;;;5039663;28;20043;-55
2022/04/15 09:40:14;;;;;;;4.10;3.70;;;34.10;27.20;;;;;;5044938;28;20083;-56
2022/04/15 09:42:45;;;;;;;4.95;3.15;;;33.70;27.10;;;;;;5030570;28;20041;-55
2022/04/15 09:45:19;;;;;;;4.10;3.47;;;33.60;26.70;;;;;;5039617;28;20464;-57
2022/04/15 09:47:57;;;;;;;4.30;3.83;;;33.70;26.40;;;;;;5039436;28;20026;-58
2022/04/15 09:50:26;;;;;;;3.90;3.58;;;33.70;26.60;;;;;;5034550;28;20040;-57
2022/04/15 09:53:06;;;;;;;3.55;3.25;;;33.90;26.70;;;;;;5042316;28;20447;-59
2022/04/15 09:55:32;;;;;;;4.65;3.38;;;34.10;26.20;;;;;;5045394;28;20032;-57
2022/04/15 09:58:04;;;;;;;3.97;3.15;;;33.70;26.40;;;;;;5044622;28;20083;-59
2022/04/15 10:00:30;;;;;;;5.07;3.30;;;33.70;26.70;;;;;;5043539;28;20033;-54
2022/04/15 10:02:57;;;;;;;4.65;3.30;;;33.50;27.60;;;;;;5043405;28;20033;-58
2022/04/15 10:05:27;;;;;;;8.60;5.68;;;33.40;28.50;;;;;;5049152;28;20078;-55
2022/04/15 10:07:53;;;;;;;4.88;4.38;;;33.00;26.50;;;;;;5032072;28;20168;-55
2022/04/15 10:10:19;;;;;;;4.20;3.78;;;32.80;28.00;;;;;;5031113;28;20176;-56
2022/04/15 10:12:48;;;;;;;4.88;3.50;;;33.10;28.90;;;;;;5032962;28;20368;-60
2022/04/15 10:15:15;;;;;;;3.60;3.25;;;33.30;27.10;;;;;;5035385;28;20077;-60
2022/04/15 10:17:41;;;;;;;7.30;4.78;;;33.80;27.60;;;;;;5036890;28;20033;-55
2022/04/15 10:20:08;;;;;;;5.55;4.50;;;33.70;26.70;;;;;;5043263;28;20014;-58
2022/04/15 10:22:37;;;;;;;7.95;4.20;;;33.50;27.60;;;;;;5027759;28;20041;-60
2022/04/15 10:25:05;;;;;;;5.88;3.65;;;33.60;27.80;;;;;;5029370;28;20034;-61
2022/04/15 10:27:31;;;;;;;4.15;3.47;;;33.70;27.60;;;;;;5029119;28;20018;-65
2022/04/15 10:30:03;;;;;;;3.97;3.17;;;33.80;27.20;;;;;;5033094;28;20695;-60
2022/04/15 10:32:29;;;;;;;4.50;4.05;;;33.90;26.90;;;;;;5029855;28;20515;-60
2022/04/15 10:34:59;;;;;;;7.38;3.55;;;34.00;26.50;;;;;;5029661;28;20022;-60
2022/04/15 10:37:53;;;;;;;3.65;3.35;;;33.80;27.30;;;;;;5040761;28;20032;-60
2022/04/15 10:40:26;;;;;;;4.28;3.67;;;33.70;27.80;;;;;;5051505;28;20032;-62
2022/04/15 10:42:52;;;;;;;6.30;3.55;;;33.50;27.80;;;;;;5053759;28;20028;-60
2022/04/15 10:45:37;;;;;;;4.45;3.38;;;33.60;27.60;;;;;;5056107;28;20024;-60
2022/04/15 10:48:04;;;;;;;4.97;2.95;;;33.90;27.50;;;;;;5055740;28;20024;-60
2022/04/15 10:50:32;;;;;;;2.67;2.47;;;34.20;29.40;;;;;;5055971;28;20024;-60
2022/04/15 10:53:27;;;;;;;3.05;2.38;;;34.20;30.50;;;;;;5053388;28;20032;-61
2022/04/15 10:55:53;;;;;;;2.60;2.00;;;34.00;29.60;;;;;;5067755;28;20079;-61
2022/04/15 10:58:20;;;;;;;3.42;2.60;;;34.00;29.00;;;;;;5062875;28;20069;-60
2022/04/15 11:01:18;;;;;;;3.10;2.42;;;34.00;31.30;;;;;;5051970;28;20057;-60
2022/04/15 11:04:01;;;;;;;2.88;2.10;;;34.00;29.00;;;;;;5054302;28;20041;-60
2022/04/15 11:06:27;;;;;;;;;;;34.10;28.70;;;;;;5054756;28;20475;-60
2022/04/15 11:08:53;;;;;;;4.00;3.42;;;34.00;28.20;;;;;;5055798;28;19916;-60
2022/04/15 11:11:33;;;;;;;3.85;3.13;;;33.80;29.40;;;;;;5055983;28;20025;-60
2022/04/15 11:14:03;;;;;;;4.88;3.05;;;33.90;29.50;;;;;;5055495;28;20033;-60
2022/04/15 11:16:39;;;;;;;3.10;2.80;;;34.10;30.10;;;;;;5054059;28;20096;-60
2022/04/15 11:19:04;;;;;;;3.70;2.70;;;34.30;28.70;;;;;;5055386;28;20018;-60
2022/04/15 11:21:41;;;;;;;2.90;2.40;;;34.30;29.10;;;;;;5054523;28;20484;-61
2022/04/15 11:24:12;;;;;;;3.08;2.13;;;34.50;30.50;;;;;;5045787;28;20124;-60
2022/04/15 11:26:40;;;;;;;2.47;2.28;;;34.50;29.70;;;;;;5039801;28;20034;-60
2022/04/15 11:29:07;;;;;;;4.22;2.83;;;34.10;28.40;;;;;;5048730;28;20025;-60
2022/04/15 11:31:38;;;;;;;4.53;3.67;;;34.10;27.80;;;;;;5035877;28;20127;-60
2022/04/15 11:34:20;;;;;;;4.47;3.22;;;33.80;28.00;;;;;;5037723;28;20072;-60
2022/04/15 11:36:48;;;;;;;6.50;3.15;;;33.70;29.20;;;;;;5045754;28;20087;-60
2022/04/15 11:39:15;;;;;;;4.15;3.47;;;33.50;27.80;;;;;;5046579;28;20036;-60
2022/04/15 11:41:46;;;;;;;3.40;3.10;;;33.60;28.90;;;;;;5050941;28;20025;-60
2022/04/15 11:44:13;;;;;;;3.83;3.42;;;34.00;28.20;;;;;;5052758;28;20487;-60
2022/04/15 11:46:40;;;;;;;3.53;3.15;;;33.80;27.20;;;;;;5052838;28;20028;-60
2022/04/15 11:49:15;;;;;;;9.05;2.80;;;34.20;26.90;;;;;;5052811;28;20074;-60
2022/04/15 11:51:46;;;;;;;3.20;2.90;;;34.40;26.60;;;;;;5053678;28;20025;-60
2022/04/15 11:54:12;;;;;;;3.42;2.72;;;34.00;27.70;;;;;;5052492;28;20025;-60
2022/04/15 11:56:39;;;;;;;3.70;2.42;;;34.10;28.10;;;;;;5053484;28;20021;-60
2022/04/15 11:59:08;;;;;;;2.35;2.15;;;34.40;31.20;;;;;;5053951;28;20025;-60
2022/04/15 12:01:34;;;;;;;2.67;2.28;;;34.20;28.90;;;;;;5054090;28;20474;-60
2022/04/15 12:04:01;;;;;;;3.25;2.67;;;34.30;28.10;;;;;;5054044;28;20126;-60
2022/04/15 12:06:27;;;;;;;2.22;2.03;;;34.50;27.30;;;;;;5052142;28;20029;-60
2022/04/15 12:08:54;;;;;;;2.35;1.90;;;34.80;27.30;;;;;;5051945;28;20493;-60
2022/04/15 12:11:23;;;;;;;1.92;1.80;;;35.10;29.20;;;;;;5052411;28;20028;-56
2022/04/15 12:13:59;;;;;;;2.60;2.40;;;35.20;27.60;;;;;;5053265;28;20033;-60
2022/04/15 12:16:30;;;;;;;2.50;2.30;;;35.00;27.30;;;;;;5053778;28;20118;-60
2022/04/15 12:18:58;;;;;;;2.85;2.05;;;34.70;30.40;;;;;;5054150;28;20031;-59
2022/04/15 12:21:25;;;;;;;2.85;2.30;;;34.70;28.30;;;;;;5054240;28;20112;-60
2022/04/15 12:24:08;;;;;;;3.70;2.28;;;34.90;28.80;;;;;;5054000;28;20025;-60
2022/04/15 12:26:45;;;;;;;2.85;2.65;;;35.20;29.30;;;;;;5054233;28;20021;-60
2022/04/15 12:32:22;;;;;;;3.38;2.88;;;35.10;30.20;;;;;;5054461;28;20383;-60
2022/04/15 12:34:51;;;;;;;3.08;2.47;;;34.70;29.40;;;;;;5054016;28;20100;-60
2022/04/15 12:37:35;;;;;;;3.97;2.80;;;34.80;29.30;;;;;;5054127;28;20021;-60
2022/04/15 12:40:04;;;;;;;2.30;2.20;;;35.00;30.00;;;;;;5054035;28;20023;-60
2022/04/15 12:42:32;;;;;;;3.65;2.45;;;35.20;28.40;;;;;;5054037;28;20472;-60
2022/04/15 12:45:00;;;;;;;5.63;2.78;;;35.10;28.60;;;;;;5054023;28;20059;-60
2022/04/15 12:47:27;;;;;;;2.90;2.70;;;35.00;28.40;;;;;;5053672;28;20021;-60